Time;durP1;ratioP1;P1;durP2;ratioP2;P2;SDS_P1;SDS_P2;PMS_P1;PMS_P2;Temp;Humidity;BMP_temperature;BMP_pressure;BME280_temperature;BME280_humidity;BME280_pressure;Samples;Min_cycle;Max_cycle;Signal;HPM_P1;HPM_P2
2023/05/17 00:01:32;;;;;;;52.10;46.45;;;14.10;90.40;;;;;;4937861;28;86235;-73
2023/05/17 00:03:58;;;;;;;52.28;46.78;;;14.00;90.50;;;;;;4938242;28;85782;-71
2023/05/17 00:06:23;;;;;;;52.08;46.50;;;14.10;90.40;;;;;;4941957;28;85670;-74
2023/05/17 00:08:49;;;;;;;51.92;46.53;;;14.00;90.30;;;;;;4933692;28;85785;-74
2023/05/17 00:11:15;;;;;;;52.45;46.75;;;14.00;90.20;;;;;;4926955;28;87145;-72
2023/05/17 00:13:41;;;;;;;51.85;46.45;;;13.90;89.60;;;;;;4926547;28;90878;-72
2023/05/17 00:16:07;;;;;;;52.30;46.80;;;13.90;90.40;;;;;;4935865;28;84954;-72
2023/05/17 00:18:32;;;;;;;52.28;46.67;;;13.90;90.20;;;;;;4940289;28;85804;-72
2023/05/17 00:20:58;;;;;;;51.88;46.38;;;13.90;90.30;;;;;;4939719;28;85860;-74
2023/05/17 00:23:24;;;;;;;52.03;46.50;;;13.90;90.40;;;;;;4927600;28;85926;-73
2023/05/17 00:25:49;;;;;;;52.08;46.55;;;13.80;90.90;;;;;;4919469;28;85614;-72
2023/05/17 00:28:15;;;;;;;52.25;46.65;;;13.80;90.40;;;;;;4922050;28;85232;-73
2023/05/17 00:30:41;;;;;;;51.97;46.58;;;13.80;90.40;;;;;;4926011;28;85297;-73
2023/05/17 00:33:07;;;;;;;51.85;46.35;;;13.80;90.30;;;;;;4922575;28;86065;-73
2023/05/17 00:35:32;;;;;;;51.75;46.33;;;13.80;90.40;;;;;;4922831;28;86064;-72
2023/05/17 00:37:58;;;;;;;52.08;46.47;;;13.80;90.30;;;;;;4921105;28;90270;-70
2023/05/17 00:40:24;;;;;;;52.40;46.70;;;13.80;90.90;;;;;;4921421;28;87050;-73
2023/05/17 00:42:50;;;;;;;52.08;46.58;;;13.80;90.80;;;;;;4924034;28;86467;-72
2023/05/17 00:45:15;;;;;;;52.10;46.63;;;13.80;90.10;;;;;;4918159;28;90331;-73
2023/05/17 00:47:41;;;;;;;52.42;46.92;;;13.70;90.20;;;;;;4932403;28;85118;-73
2023/05/17 00:50:07;;;;;;;53.67;47.08;;;13.70;90.60;;;;;;4942900;28;84944;-72
2023/05/17 00:52:34;;;;;;;52.20;46.65;;;13.70;90.50;;;;;;4940674;28;85726;-70
2023/05/17 00:55:00;;;;;;;52.15;46.63;;;13.70;90.90;;;;;;4935687;28;86450;-72
2023/05/17 00:57:28;;;;;;;52.22;46.65;;;13.70;90.50;;;;;;4928235;28;86732;-71
2023/05/17 00:59:54;;;;;;;52.38;46.67;;;13.70;90.90;;;;;;4930026;28;85938;-72
2023/05/17 01:02:20;;;;;;;51.80;46.35;;;13.60;90.70;;;;;;4931056;28;85610;-72
2023/05/17 01:04:47;;;;;;;52.95;46.65;;;13.60;90.50;;;;;;4936492;28;90824;-73
2023/05/17 01:07:13;;;;;;;52.08;46.60;;;13.60;90.60;;;;;;4938042;28;85526;-72
2023/05/17 01:09:39;;;;;;;51.95;46.50;;;13.60;90.70;;;;;;4921536;28;86154;-72
2023/05/17 01:12:29;;;;;;;52.40;46.83;;;13.60;90.70;;;;;;4923294;28;85490;-72
2023/05/17 01:15:14;;;;;;;52.08;46.45;;;13.50;90.80;;;;;;4930702;28;86778;-73
2023/05/17 01:17:54;;;;;;;52.25;46.65;;;13.50;90.80;;;;;;4925129;28;85935;-73
2023/05/17 01:20:30;;;;;;;52.08;46.58;;;13.60;90.70;;;;;;4937645;28;86074;-73
2023/05/17 01:23:10;;;;;;;51.92;46.53;;;13.50;90.70;;;;;;4937511;28;87041;-71
2023/05/17 01:25:57;;;;;;;51.85;46.38;;;13.50;91.00;;;;;;4928993;28;87035;-75
2023/05/17 01:28:25;;;;;;;52.67;46.85;;;13.50;90.50;;;;;;4919808;28;90372;-72
2023/05/17 01:30:52;;;;;;;52.17;46.58;;;13.50;91.10;;;;;;4923636;28;86289;-71
2023/05/17 01:33:20;;;;;;;51.58;46.17;;;13.40;90.50;;;;;;4929250;28;85882;-72
2023/05/17 01:35:45;;;;;;;52.53;46.83;;;13.40;90.90;;;;;;4921496;28;86636;-72
2023/05/17 01:38:11;;;;;;;52.03;46.33;;;13.40;91.10;;;;;;4932101;28;86026;-70
2023/05/17 01:40:46;;;;;;;51.92;46.33;;;13.50;91.10;;;;;;4928437;28;85960;-74
2023/05/17 01:43:22;;;;;;;51.95;46.55;;;13.40;90.90;;;;;;4928877;28;86022;-72
2023/05/17 01:46:01;;;;;;;51.42;46.05;;;13.40;91.00;;;;;;4929241;28;85894;-74
2023/05/17 01:48:55;;;;;;;51.65;46.20;;;13.40;91.00;;;;;;4937541;28;86705;-74
2023/05/17 01:51:26;;;;;;;52.38;46.78;;;13.30;91.00;;;;;;4938395;28;84986;-72
2023/05/17 01:53:59;;;;;;;51.42;46.08;;;13.30;90.90;;;;;;4935701;28;86638;-71
2023/05/17 01:56:33;;;;;;;51.83;46.50;;;13.30;91.30;;;;;;4945004;28;87043;-72
2023/05/17 01:59:01;;;;;;;52.47;46.70;;;13.30;90.90;;;;;;4941717;28;85118;-72
2023/05/17 02:01:29;;;;;;;51.92;46.53;;;13.30;90.70;;;;;;4938241;28;85467;-72
2023/05/17 02:03:55;;;;;;;52.03;46.63;;;13.30;91.30;;;;;;4937671;28;87145;-72
2023/05/17 02:06:20;;;;;;;52.10;46.60;;;13.40;90.90;;;;;;4938254;28;85471;-72
2023/05/17 02:08:46;;;;;;;52.63;47.13;;;13.20;90.50;;;;;;4936907;28;86811;-72
2023/05/17 02:11:11;;;;;;;52.13;46.67;;;13.20;90.70;;;;;;4942676;28;85477;-71
2023/05/17 02:13:37;;;;;;;51.97;46.47;;;13.20;90.90;;;;;;4953886;28;85503;-73
2023/05/17 02:16:03;;;;;;;51.92;46.42;;;13.30;91.10;;;;;;4943931;28;85842;-72
2023/05/17 02:18:31;;;;;;;51.92;46.55;;;13.20;90.70;;;;;;4938387;28;85506;-73
2023/05/17 02:20:56;;;;;;;51.75;46.35;;;13.20;90.80;;;;;;4938172;28;85597;-72
2023/05/17 02:23:23;;;;;;;51.85;46.45;;;13.20;91.30;;;;;;4941572;28;85907;-71
2023/05/17 02:25:49;;;;;;;51.88;46.50;;;13.20;91.10;;;;;;4940840;28;85117;-73
2023/05/17 02:28:15;;;;;;;51.75;46.35;;;13.20;91.20;;;;;;4936107;28;85389;-71
2023/05/17 02:30:41;;;;;;;51.88;46.45;;;13.20;90.90;;;;;;4937506;28;88196;-73
2023/05/17 02:33:07;;;;;;;52.08;46.50;;;13.10;91.10;;;;;;4938730;28;85096;-73
2023/05/17 02:35:33;;;;;;;52.45;46.85;;;13.10;91.10;;;;;;4939953;28;85445;-73
2023/05/17 02:37:59;;;;;;;52.20;46.70;;;13.10;90.60;;;;;;4936398;28;85899;-72
2023/05/17 02:40:24;;;;;;;51.88;46.38;;;13.10;91.00;;;;;;4937911;28;85264;-72
2023/05/17 02:42:50;;;;;;;52.15;46.65;;;13.10;90.70;;;;;;4939884;28;85558;-71
2023/05/17 02:45:16;;;;;;;52.25;46.67;;;13.00;91.40;;;;;;4939044;28;84986;-73
2023/05/17 02:47:42;;;;;;;52.53;46.80;;;13.00;90.80;;;;;;4940763;28;90098;-72
2023/05/17 02:50:08;;;;;;;52.15;46.80;;;13.00;90.90;;;;;;4939903;28;86411;-73
2023/05/17 02:52:34;;;;;;;51.97;46.58;;;13.00;91.40;;;;;;4940096;28;85429;-73
2023/05/17 02:55:00;;;;;;;52.58;47.08;;;13.00;91.20;;;;;;4942568;28;85763;-71
2023/05/17 02:57:25;;;;;;;52.58;47.08;;;13.10;91.50;;;;;;4939783;28;85158;-73
2023/05/17 02:59:51;;;;;;;51.92;46.33;;;13.00;91.00;;;;;;4939596;28;85762;-72
2023/05/17 03:02:16;;;;;;;52.92;47.15;;;13.00;91.40;;;;;;4944432;28;85450;-73
2023/05/17 03:04:42;;;;;;;52.33;46.83;;;13.00;91.00;;;;;;4936549;28;85463;-72
2023/05/17 03:07:08;;;;;;;52.45;46.85;;;13.00;90.80;;;;;;4943428;28;85737;-74
2023/05/17 03:09:34;;;;;;;53.05;47.25;;;12.90;90.90;;;;;;4938365;28;85748;-73
2023/05/17 03:11:59;;;;;;;51.95;46.55;;;12.90;91.00;;;;;;4938566;28;85136;-71
2023/05/17 03:14:25;;;;;;;52.25;46.85;;;12.90;91.40;;;;;;4940334;28;84936;-70
2023/05/17 03:16:51;;;;;;;52.63;46.83;;;12.90;91.40;;;;;;4937716;28;87497;-71
2023/05/17 03:19:16;;;;;;;52.15;46.63;;;12.90;91.20;;;;;;4941722;28;85292;-72
2023/05/17 03:21:42;;;;;;;51.80;46.47;;;12.90;91.00;;;;;;4939658;28;86012;-70
2023/05/17 03:24:08;;;;;;;52.28;46.83;;;12.90;91.30;;;;;;4939756;28;86114;-75
2023/05/17 03:26:33;;;;;;;52.33;46.88;;;12.90;91.10;;;;;;4940065;28;85289;-72
2023/05/17 03:28:59;;;;;;;51.83;46.55;;;12.90;91.10;;;;;;4935478;28;86408;-72
2023/05/17 03:31:25;;;;;;;52.58;46.83;;;12.90;91.40;;;;;;4934155;28;84843;-71
2023/05/17 03:33:50;;;;;;;51.83;46.53;;;12.90;91.00;;;;;;4937741;28;89315;-70
2023/05/17 03:36:16;;;;;;;52.53;46.95;;;12.90;91.10;;;;;;4935757;28;87992;-73
2023/05/17 03:38:42;;;;;;;52.65;47.13;;;12.90;91.20;;;;;;4936254;28;85634;-71
2023/05/17 03:41:08;;;;;;;52.90;47.25;;;12.90;91.70;;;;;;4940759;28;91877;-72
2023/05/17 03:43:33;;;;;;;52.70;47.05;;;12.80;91.30;;;;;;4940103;28;85583;-72
2023/05/17 03:45:59;;;;;;;52.38;46.90;;;12.70;91.10;;;;;;4941761;28;84920;-73
2023/05/17 03:48:25;;;;;;;52.35;46.85;;;12.70;91.30;;;;;;4942112;28;85593;-73
2023/05/17 03:50:50;;;;;;;52.40;46.90;;;12.80;91.50;;;;;;4942337;28;85998;-73
2023/05/17 03:53:16;;;;;;;52.60;47.00;;;12.80;91.40;;;;;;4940876;28;87380;-72
2023/05/17 03:55:41;;;;;;;52.75;47.22;;;12.80;91.20;;;;;;4939845;28;85135;-73
2023/05/17 03:58:07;;;;;;;52.17;46.60;;;12.70;91.10;;;;;;4936492;28;85507;-73
2023/05/17 04:00:33;;;;;;;51.92;46.53;;;12.80;91.50;;;;;;4936339;28;86227;-72
2023/05/17 04:02:59;;;;;;;52.70;47.08;;;12.80;91.60;;;;;;4940738;28;85564;-72
2023/05/17 04:05:25;;;;;;;53.13;47.33;;;12.70;91.40;;;;;;4943594;28;85711;-72
2023/05/17 04:07:51;;;;;;;52.65;47.13;;;12.80;91.40;;;;;;4938604;28;85682;-72
2023/05/17 04:10:16;;;;;;;52.15;46.75;;;12.80;91.20;;;;;;4946726;28;85540;-72
2023/05/17 04:12:42;;;;;;;52.55;47.08;;;12.80;91.40;;;;;;4943137;28;85225;-73
2023/05/17 04:15:08;;;;;;;52.92;47.42;;;12.70;90.90;;;;;;4932565;28;87648;-74
2023/05/17 04:17:34;;;;;;;52.65;47.08;;;12.70;91.30;;;;;;4940161;28;86488;-73
2023/05/17 04:19:59;;;;;;;52.55;47.03;;;12.70;90.90;;;;;;4935983;28;85426;-72
2023/05/17 04:22:25;;;;;;;53.05;47.45;;;12.70;91.50;;;;;;4945958;28;85528;-72
2023/05/17 04:24:51;;;;;;;51.95;46.58;;;12.70;91.30;;;;;;4939951;28;84999;-72
2023/05/17 04:27:16;;;;;;;52.38;47.03;;;12.70;91.00;;;;;;4942123;28;86728;-71
2023/05/17 04:29:42;;;;;;;52.40;46.90;;;12.70;91.40;;;;;;4941591;28;85004;-71
2023/05/17 04:32:08;;;;;;;52.58;47.20;;;12.70;91.40;;;;;;4939595;28;86965;-74
2023/05/17 04:34:34;;;;;;;52.33;46.88;;;12.70;90.80;;;;;;4937281;28;85105;-72
2023/05/17 04:36:59;;;;;;;52.92;47.33;;;12.70;91.10;;;;;;4938767;28;86875;-72
2023/05/17 04:39:25;;;;;;;52.35;46.80;;;12.70;91.20;;;;;;4938176;28;90140;-73
2023/05/17 04:41:51;;;;;;;52.85;47.35;;;12.70;91.20;;;;;;4942970;28;86671;-71
2023/05/17 04:44:17;;;;;;;52.85;47.15;;;12.70;91.20;;;;;;4944867;28;91391;-72
2023/05/17 04:46:43;;;;;;;52.38;46.95;;;12.80;90.90;;;;;;4944503;28;89611;-72
2023/05/17 04:49:09;;;;;;;52.22;46.83;;;12.70;90.80;;;;;;4950806;28;85050;-75
2023/05/17 04:51:35;;;;;;;53.00;47.35;;;12.70;91.20;;;;;;4949649;28;86523;-74
2023/05/17 04:54:00;;;;;;;52.80;47.20;;;12.70;91.10;;;;;;4950491;28;86737;-74
2023/05/17 04:56:27;;;;;;;53.60;47.40;;;12.70;90.80;;;;;;4953304;28;84976;-74
2023/05/17 04:58:53;;;;;;;52.50;47.03;;;12.80;90.80;;;;;;4943745;28;84319;-73
2023/05/17 05:01:18;;;;;;;53.25;47.60;;;12.90;91.00;;;;;;4927249;28;85594;-74
2023/05/17 05:03:44;;;;;;;52.58;47.13;;;12.90;90.90;;;;;;4925605;28;86518;-74
2023/05/17 05:06:10;;;;;;;52.78;47.20;;;12.90;90.70;;;;;;4937507;28;85073;-73
2023/05/17 05:08:36;;;;;;;53.13;47.50;;;13.00;90.60;;;;;;4939983;28;90122;-72
2023/05/17 05:11:02;;;;;;;53.22;47.42;;;13.10;90.70;;;;;;4929859;28;85187;-73
2023/05/17 05:13:28;;;;;;;53.58;47.72;;;13.10;90.00;;;;;;4938223;28;87388;-73
2023/05/17 05:15:54;;;;;;;52.78;47.38;;;13.10;89.90;;;;;;4944309;28;86176;-74
2023/05/17 05:18:20;;;;;;;53.38;47.67;;;13.10;90.10;;;;;;4931760;28;85048;-73
2023/05/17 05:20:47;;;;;;;53.67;47.90;;;13.10;89.70;;;;;;4932500;28;85096;-71
2023/05/17 05:23:13;;;;;;;53.30;47.67;;;13.10;90.40;;;;;;4943883;28;84815;-70
2023/05/17 05:25:39;;;;;;;53.15;47.55;;;13.20;90.40;;;;;;4952739;28;84972;-72
2023/05/17 05:28:04;;;;;;;52.97;47.25;;;13.20;89.30;;;;;;4955873;28;86694;-73
2023/05/17 05:30:31;;;;;;;53.28;47.67;;;13.20;90.30;;;;;;4946316;28;85483;-72
2023/05/17 05:32:57;;;;;;;53.25;47.65;;;13.20;89.80;;;;;;4957374;28;85015;-71
2023/05/17 05:35:28;;;;;;;53.80;47.90;;;13.30;89.60;;;;;;4953070;28;84914;-71
2023/05/17 05:37:58;;;;;;;53.40;47.72;;;13.30;90.10;;;;;;4950773;28;85115;-76
2023/05/17 05:40:24;;;;;;;53.05;47.45;;;13.30;90.20;;;;;;4951382;28;84725;-74
2023/05/17 05:42:49;;;;;;;56.65;47.65;;;13.30;88.60;;;;;;4951402;28;84684;-74
2023/05/17 05:45:15;;;;;;;93.00;64.45;;;13.30;90.00;;;;;;4953001;28;84979;-75
2023/05/17 05:47:41;;;;;;;59.58;51.47;;;13.30;89.90;;;;;;4943859;28;85050;-72
2023/05/17 05:50:07;;;;;;;64.00;52.50;;;13.50;89.50;;;;;;4940903;28;85843;-74
2023/05/17 05:52:33;;;;;;;58.78;50.80;;;13.30;84.20;;;;;;4939749;28;85029;-73
2023/05/17 05:54:59;;;;;;;61.63;50.50;;;13.00;83.70;;;;;;4944781;28;84288;-72
2023/05/17 05:57:25;;;;;;;61.28;50.05;;;13.10;84.50;;;;;;4944777;28;84679;-71
2023/05/17 05:59:50;;;;;;;55.83;49.42;;;13.20;84.10;;;;;;4945629;28;85249;-72
2023/05/17 06:02:16;;;;;;;55.25;48.97;;;13.20;83.60;;;;;;4924478;28;84802;-73
2023/05/17 06:04:42;;;;;;;58.58;49.28;;;13.20;82.50;;;;;;4934043;28;87287;-75
2023/05/17 06:07:08;;;;;;;56.53;49.30;;;13.50;85.70;;;;;;4937440;28;87269;-73
2023/05/17 06:09:33;;;;;;;55.47;48.85;;;13.80;86.80;;;;;;4942621;28;84907;-73
2023/05/17 06:12:00;;;;;;;53.85;47.95;;;14.10;84.30;;;;;;4945320;28;85458;-71
2023/05/17 06:14:25;;;;;;;57.75;47.85;;;14.10;84.20;;;;;;4944711;28;88331;-74
2023/05/17 06:16:51;;;;;;;58.47;49.38;;;14.30;83.20;;;;;;4930852;28;87439;-75
2023/05/17 06:19:17;;;;;;;58.50;49.03;;;14.40;86.70;;;;;;4939209;28;86137;-76
2023/05/17 06:21:43;;;;;;;54.80;48.80;;;14.50;86.50;;;;;;4940248;28;85493;-74
2023/05/17 06:24:08;;;;;;;55.35;48.60;;;14.50;87.00;;;;;;4944906;28;85303;-77
2023/05/17 06:26:34;;;;;;;59.60;49.00;;;14.30;81.90;;;;;;4937428;28;85345;-77
2023/05/17 06:29:00;;;;;;;58.90;49.30;;;14.40;83.10;;;;;;4937666;28;84844;-77
2023/05/17 06:31:25;;;;;;;65.05;49.17;;;14.40;85.30;;;;;;4926515;28;85177;-77
2023/05/17 06:33:51;;;;;;;55.03;49.05;;;14.60;87.60;;;;;;4940666;28;85738;-73
2023/05/17 06:36:17;;;;;;;56.95;49.38;;;14.70;86.70;;;;;;4946189;28;84881;-75
2023/05/17 06:38:42;;;;;;;57.22;49.83;;;14.70;86.20;;;;;;4944673;28;88342;-74
2023/05/17 06:41:08;;;;;;;54.83;48.83;;;14.80;85.90;;;;;;4947862;28;86195;-77
2023/05/17 06:43:34;;;;;;;62.47;49.80;;;14.80;84.70;;;;;;4941082;28;85830;-72
2023/05/17 06:46:00;;;;;;;59.95;50.38;;;14.90;85.80;;;;;;4950196;28;87398;-74
2023/05/17 06:48:25;;;;;;;60.72;49.90;;;15.00;85.90;;;;;;4948975;28;87358;-76
2023/05/17 06:50:51;;;;;;;62.40;50.50;;;15.20;85.90;;;;;;4952947;28;84718;-76
2023/05/17 06:53:17;;;;;;;60.85;49.97;;;15.20;85.70;;;;;;4950285;28;84851;-75
2023/05/17 06:55:42;;;;;;;59.42;49.55;;;15.20;85.10;;;;;;4943501;28;87785;-74
2023/05/17 06:58:08;;;;;;;57.92;49.47;;;15.20;85.10;;;;;;4951053;28;84505;-75
2023/05/17 07:00:34;;;;;;;56.00;49.28;;;15.30;85.00;;;;;;4940367;28;85224;-74
2023/05/17 07:02:59;;;;;;;58.95;50.33;;;15.40;84.20;;;;;;4952257;28;85319;-74
2023/05/17 07:05:27;;;;;;;58.30;49.38;;;15.40;84.50;;;;;;4946547;28;85147;-75
2023/05/17 07:07:53;;;;;;;55.60;49.05;;;15.50;84.50;;;;;;4939802;28;90554;-75
2023/05/17 07:10:19;;;;;;;58.78;49.28;;;15.50;83.60;;;;;;4948562;28;85720;-76
2023/05/17 07:12:46;;;;;;;55.95;49.28;;;15.60;84.00;;;;;;4947735;28;85777;-74
2023/05/17 07:15:11;;;;;;;56.42;49.00;;;15.50;83.80;;;;;;4947761;28;85214;-76
2023/05/17 07:17:37;;;;;;;56.03;49.10;;;15.60;83.10;;;;;;4944050;28;84815;-76
2023/05/17 07:20:04;;;;;;;59.28;49.25;;;15.50;82.80;;;;;;4943854;28;84783;-76
2023/05/17 07:22:30;;;;;;;57.55;48.95;;;15.30;80.50;;;;;;4948592;28;86144;-76
2023/05/17 07:24:56;;;;;;;56.90;48.70;;;15.30;79.60;;;;;;4946352;28;85620;-77
2023/05/17 07:27:22;;;;;;;57.28;48.97;;;15.30;80.90;;;;;;4949772;28;85493;-74
2023/05/17 07:29:47;;;;;;;59.47;49.63;;;15.40;82.10;;;;;;4948266;28;86186;-76
2023/05/17 07:32:14;;;;;;;56.28;49.17;;;15.40;83.50;;;;;;4946840;28;87114;-76
2023/05/17 07:34:40;;;;;;;61.67;49.33;;;15.30;81.00;;;;;;4942626;28;85557;-78
2023/05/17 07:37:05;;;;;;;57.45;49.20;;;15.20;82.00;;;;;;4948666;28;84716;-74
2023/05/17 07:39:31;;;;;;;57.15;49.33;;;15.40;84.00;;;;;;4943711;28;87576;-75
2023/05/17 07:41:57;;;;;;;61.35;49.53;;;15.40;83.10;;;;;;4953790;28;85902;-75
2023/05/17 07:44:22;;;;;;;58.25;49.88;;;15.60;83.20;;;;;;4946465;28;85287;-74
2023/05/17 07:46:48;;;;;;;57.58;49.53;;;15.50;80.90;;;;;;4945492;28;85513;-76
2023/05/17 07:49:14;;;;;;;60.03;49.47;;;15.30;79.60;;;;;;4946605;28;85033;-75
2023/05/17 07:51:40;;;;;;;58.88;49.65;;;15.40;83.50;;;;;;4949369;28;84875;-73
2023/05/17 07:54:06;;;;;;;58.00;49.38;;;15.60;82.80;;;;;;4951900;28;85460;-75
2023/05/17 07:56:32;;;;;;;57.45;49.40;;;15.50;82.90;;;;;;4945830;28;86258;-76
2023/05/17 07:58:58;;;;;;;59.72;49.03;;;15.70;82.30;;;;;;4936313;28;86292;-76
2023/05/17 08:01:24;;;;;;;58.30;49.20;;;15.70;81.90;;;;;;4943901;28;85348;-76
2023/05/17 08:03:50;;;;;;;58.17;49.05;;;15.70;82.80;;;;;;4937687;28;86596;-76
2023/05/17 08:06:16;;;;;;;60.20;49.03;;;15.80;82.70;;;;;;4947088;28;86294;-75
2023/05/17 08:08:42;;;;;;;57.25;48.80;;;16.00;82.20;;;;;;4947285;28;85599;-77
2023/05/17 08:11:09;;;;;;;58.45;49.28;;;15.90;82.50;;;;;;4944667;28;88045;-75
2023/05/17 08:13:35;;;;;;;60.53;48.92;;;16.00;82.30;;;;;;4949083;28;84758;-75
2023/05/17 08:16:02;;;;;;;56.67;48.75;;;16.10;82.50;;;;;;4939688;28;85078;-74
2023/05/17 08:18:31;;;;;;;57.90;49.38;;;16.10;80.90;;;;;;4949413;28;86682;-73
2023/05/17 08:20:57;;;;;;;56.72;48.53;;;16.30;81.70;;;;;;4953098;28;87824;-74
2023/05/17 08:23:23;;;;;;;59.33;48.90;;;16.30;79.40;;;;;;4950688;28;85829;-76
2023/05/17 08:25:48;;;;;;;59.22;49.45;;;16.30;79.80;;;;;;4951802;28;84927;-75
2023/05/17 08:28:14;;;;;;;57.60;49.08;;;16.30;81.20;;;;;;4949905;28;85291;-79
2023/05/17 08:30:40;;;;;;;58.75;49.25;;;16.30;80.00;;;;;;4951939;28;85575;-74
2023/05/17 08:33:08;;;;;;;61.83;49.50;;;16.30;81.00;;;;;;4957901;28;87417;-78
2023/05/17 08:35:34;;;;;;;60.53;49.20;;;16.30;81.00;;;;;;4948520;28;88185;-75
2023/05/17 08:37:59;;;;;;;56.53;48.58;;;16.30;81.50;;;;;;4958736;28;86033;-76
2023/05/17 08:40:26;;;;;;;57.28;48.47;;;16.30;80.20;;;;;;4964170;28;85300;-76
2023/05/17 08:42:52;;;;;;;56.67;48.92;;;16.20;77.80;;;;;;4958429;28;85248;-73
2023/05/17 08:45:19;;;;;;;58.75;49.05;;;16.20;77.90;;;;;;4957957;28;84712;-74
2023/05/17 08:47:47;;;;;;;57.92;49.05;;;16.30;81.10;;;;;;4955017;28;85697;-77
2023/05/17 08:50:14;;;;;;;61.92;49.05;;;16.40;80.50;;;;;;4945716;28;85615;-77
2023/05/17 08:52:44;;;;;;;57.97;49.00;;;16.50;81.20;;;;;;4953310;28;85156;-75
2023/05/17 08:55:10;;;;;;;59.60;49.23;;;16.40;79.70;;;;;;4958165;28;85313;-74
2023/05/17 08:57:38;;;;;;;56.80;48.75;;;16.30;77.80;;;;;;4952167;28;85762;-78
2023/05/17 09:00:14;;;;;;;58.90;48.88;;;16.40;79.80;;;;;;4954010;28;84818;-76
2023/05/17 09:02:41;;;;;;;59.17;49.00;;;16.50;79.40;;;;;;4952940;28;85092;-75
2023/05/17 09:05:07;;;;;;;61.50;49.17;;;16.50;80.20;;;;;;4965293;28;85613;-77
2023/05/17 09:07:34;;;;;;;57.88;49.17;;;16.50;78.20;;;;;;4950986;28;85911;-75
2023/05/17 09:10:01;;;;;;;60.97;49.25;;;16.50;77.30;;;;;;4952042;28;84483;-76
2023/05/17 09:12:28;;;;;;;57.97;48.83;;;16.50;79.50;;;;;;4945398;28;86353;-75
2023/05/17 09:15:10;;;;;;;57.78;48.78;;;16.70;79.80;;;;;;4944756;28;84919;-75
2023/05/17 09:17:37;;;;;;;58.50;49.10;;;16.70;78.00;;;;;;4946057;28;85086;-79
2023/05/17 09:20:03;;;;;;;62.25;49.13;;;16.70;77.50;;;;;;4942004;28;85003;-77
2023/05/17 09:22:29;;;;;;;58.50;49.10;;;16.60;78.70;;;;;;4941432;28;85563;-78
2023/05/17 09:24:58;;;;;;;57.47;49.08;;;16.60;78.80;;;;;;4941903;28;85031;-76
2023/05/17 09:27:24;;;;;;;59.03;49.17;;;16.70;77.90;;;;;;4945431;28;85547;-78
2023/05/17 09:29:53;;;;;;;57.88;49.13;;;16.60;78.00;;;;;;4937379;28;85171;-76
2023/05/17 09:32:23;;;;;;;59.67;49.22;;;16.70;79.00;;;;;;4944532;28;85278;-79
2023/05/17 09:34:50;;;;;;;62.15;49.72;;;16.70;78.10;;;;;;4935537;28;86391;-80
2023/05/17 09:37:17;;;;;;;60.72;49.75;;;16.80;78.50;;;;;;4935462;28;86761;-78
2023/05/17 09:39:44;;;;;;;58.50;49.45;;;16.90;78.60;;;;;;4935186;28;87099;-77
2023/05/17 09:42:15;;;;;;;60.45;49.72;;;17.00;78.40;;;;;;4952101;28;84779;-75
2023/05/17 09:44:51;;;;;;;58.77;49.33;;;17.00;77.80;;;;;;4955166;28;82115;-79
2023/05/17 09:47:25;;;;;;;59.88;49.17;;;17.10;76.70;;;;;;4941775;28;85507;-75
2023/05/17 09:49:52;;;;;;;60.40;49.85;;;17.10;75.90;;;;;;4948873;28;83158;-79
2023/05/17 09:52:19;;;;;;;58.95;49.47;;;17.10;77.00;;;;;;4943004;28;86869;-77
2023/05/17 09:54:54;;;;;;;60.20;49.88;;;17.10;76.80;;;;;;4947413;28;85355;-76
2023/05/17 09:57:20;;;;;;;59.72;49.65;;;17.20;76.60;;;;;;4946734;28;85169;-78
2023/05/17 09:59:46;;;;;;;60.60;49.97;;;17.30;75.80;;;;;;4946557;28;85419;-76
2023/05/17 10:02:34;;;;;;;61.35;49.65;;;17.30;76.40;;;;;;4943706;28;84984;-77
2023/05/17 10:05:04;;;;;;;60.75;49.85;;;17.20;75.50;;;;;;4960270;28;84571;-77
2023/05/17 10:07:30;;;;;;;60.22;49.95;;;17.30;75.10;;;;;;4936646;28;86122;-81
2023/05/17 10:09:57;;;;;;;62.17;49.45;;;17.20;74.90;;;;;;4946347;28;85540;-77
2023/05/17 10:12:26;;;;;;;58.63;49.88;;;17.30;75.90;;;;;;4954773;28;85275;-75
2023/05/17 10:14:55;;;;;;;59.33;49.72;;;17.30;75.70;;;;;;4943739;28;85890;-75
2023/05/17 10:17:22;;;;;;;60.78;50.25;;;17.40;75.40;;;;;;4945456;28;84968;-77
2023/05/17 10:19:48;;;;;;;62.63;50.00;;;17.40;75.00;;;;;;4949046;28;85425;-78
2023/05/17 10:22:15;;;;;;;58.15;49.38;;;17.40;74.90;;;;;;4947649;28;85352;-77
2023/05/17 10:24:45;;;;;;;58.67;49.50;;;17.40;74.80;;;;;;4946211;28;85503;-76
2023/05/17 10:27:11;;;;;;;59.63;49.63;;;17.40;75.20;;;;;;4933406;28;86500;-76
2023/05/17 10:29:38;;;;;;;62.88;49.85;;;17.50;74.90;;;;;;4937450;28;87375;-76
2023/05/17 10:32:08;;;;;;;59.88;49.53;;;17.60;74.40;;;;;;4939750;28;87060;-78
2023/05/17 10:34:38;;;;;;;59.30;49.55;;;17.60;73.70;;;;;;4943454;28;85238;-78
2023/05/17 10:37:04;;;;;;;61.22;49.90;;;17.70;73.10;;;;;;4940849;28;86324;-76
2023/05/17 10:39:37;;;;;;;60.55;50.08;;;17.70;72.30;;;;;;4947144;28;85240;-77
2023/05/17 10:42:06;;;;;;;58.42;49.50;;;17.70;73.10;;;;;;4944458;28;85637;-76
2023/05/17 10:44:33;;;;;;;60.80;49.72;;;17.70;73.00;;;;;;4943193;28;85090;-78
2023/05/17 10:46:59;;;;;;;62.28;50.13;;;17.70;73.50;;;;;;4939900;28;85677;-77
2023/05/17 10:49:28;;;;;;;59.90;49.88;;;17.80;73.40;;;;;;4943403;28;85157;-76
2023/05/17 10:51:57;;;;;;;59.13;49.78;;;17.80;73.50;;;;;;4940875;28;87659;-77
2023/05/17 10:54:34;;;;;;;58.20;49.88;;;17.80;73.00;;;;;;4936348;28;85370;-77
2023/05/17 10:57:04;;;;;;;60.67;49.92;;;17.80;72.90;;;;;;4933659;28;86013;-77
2023/05/17 10:59:32;;;;;;;61.45;50.13;;;17.80;73.40;;;;;;4932164;28;86367;-79
2023/05/17 11:02:08;;;;;;;66.40;51.42;;;17.90;73.10;;;;;;4934000;28;85114;-80
2023/05/17 11:04:42;;;;;;;64.15;51.08;;;17.90;74.00;;;;;;4938359;28;85191;-79
2023/05/17 11:07:24;;;;;;;70.10;51.15;;;18.00;74.00;;;;;;4940464;28;86050;-77
2023/05/17 11:09:54;;;;;;;69.75;51.65;;;18.00;74.30;;;;;;4950143;28;84425;-75
2023/05/17 11:12:31;;;;;;;79.07;53.33;;;18.00;74.60;;;;;;4961891;28;85352;-73
2023/05/17 11:14:57;;;;;;;69.30;51.75;;;18.00;74.80;;;;;;4940887;28;90008;-75
2023/05/17 11:17:49;;;;;;;69.18;51.38;;;17.90;75.00;;;;;;4945545;28;85419;-74
2023/05/17 11:20:15;;;;;;;65.00;51.45;;;17.90;74.90;;;;;;4955497;28;84576;-74
2023/05/17 11:23:03;;;;;;;70.95;52.75;;;17.90;75.20;;;;;;4949080;28;85048;-78
2023/05/17 11:25:34;;;;;;;73.65;53.20;;;18.00;75.70;;;;;;4955470;28;85656;-76
2023/05/17 11:28:05;;;;;;;73.80;52.00;;;18.00;75.20;;;;;;4948731;28;91276;-76
2023/05/17 11:30:31;;;;;;;66.18;51.80;;;18.00;75.00;;;;;;4936491;28;89337;-78
2023/05/17 11:32:57;;;;;;;66.85;50.78;;;18.00;74.90;;;;;;4950732;28;85109;-74
2023/05/17 11:35:25;;;;;;;66.53;50.80;;;18.10;73.80;;;;;;4969347;28;84834;-75
2023/05/17 11:37:53;;;;;;;64.65;50.95;;;18.10;72.50;;;;;;4989561;22;85796;-57
2023/05/17 11:40:26;;;;;;;72.07;52.20;;;18.10;72.80;;;;;;4983446;28;86247;-56
2023/05/17 11:43:17;;;;;;;65.07;51.65;;;18.10;74.00;;;;;;4984883;28;85235;-53
2023/05/17 11:45:50;;;;;;;71.75;51.90;;;18.10;73.90;;;;;;4982716;28;84824;-51
2023/05/17 11:48:17;;;;;;;66.75;51.13;;;18.10;74.00;;;;;;4979625;28;85224;-56
2023/05/17 11:50:45;;;;;;;67.93;52.05;;;18.20;73.70;;;;;;4972460;28;90142;-57
2023/05/17 11:53:12;;;;;;;66.63;51.75;;;18.20;74.20;;;;;;4966549;28;85626;-53
2023/05/17 11:55:50;;;;;;;70.00;51.70;;;18.20;73.50;;;;;;4968170;28;85058;-58
2023/05/17 11:58:18;;;;;;;65.32;50.90;;;18.20;72.00;;;;;;4964450;28;85678;-50
2023/05/17 12:00:44;;;;;;;67.90;51.45;;;18.30;71.90;;;;;;4966821;28;85777;-51
2023/05/17 12:03:17;;;;;;;66.10;51.58;;;18.30;70.40;;;;;;4972300;28;87321;-54
2023/05/17 12:05:43;;;;;;;69.50;52.08;;;18.40;68.70;;;;;;4979725;28;85305;-58
2023/05/17 12:08:09;;;;;;;67.85;52.15;;;18.40;69.20;;;;;;4979966;28;89582;-56
2023/05/17 12:10:36;;;;;;;67.47;51.65;;;18.40;68.50;;;;;;4973076;28;85702;-57
2023/05/17 12:13:02;;;;;;;69.22;51.63;;;18.40;69.20;;;;;;4954547;28;84901;-58
2023/05/17 12:15:30;;;;;;;64.25;51.00;;;18.50;69.30;;;;;;4954439;28;90089;-58
2023/05/17 12:17:56;;;;;;;63.13;51.17;;;18.40;69.70;;;;;;4961172;28;84990;-55
2023/05/17 12:20:21;;;;;;;66.35;51.47;;;18.50;68.50;;;;;;4960255;28;85055;-57
2023/05/17 12:22:54;;;;;;;68.55;51.33;;;18.50;68.50;;;;;;4961279;28;85751;-59
2023/05/17 12:25:23;;;;;;;67.82;51.53;;;18.50;68.30;;;;;;4959699;28;86731;-57
2023/05/17 12:27:53;;;;;;;64.45;51.00;;;18.60;68.90;;;;;;4964680;28;85321;-61
2023/05/17 12:30:19;;;;;;;62.15;50.92;;;18.60;68.60;;;;;;4962028;28;85044;-61